createdAt,value
2023-02-22T00:02:14.282Z,23.60
2023-02-22T00:04:42.095Z,23.20
2023-02-22T00:07:10.014Z,19.20
2023-02-22T00:09:37.782Z,21.90
2023-02-22T00:12:05.741Z,20.70
2023-02-22T00:14:33.813Z,23.20
2023-02-22T00:17:02.634Z,25.80
2023-02-22T00:19:31.300Z,24.60
2023-02-22T00:22:00.308Z,22.60
2023-02-22T00:24:29.628Z,20.80
2023-02-22T00:27:15.669Z,23.00
2023-02-22T00:29:47.321Z,21.70
2023-02-22T00:32:15.857Z,22.00
2023-02-22T00:34:43.872Z,20.90
2023-02-22T00:37:11.845Z,21.40
2023-02-22T00:39:40.526Z,20.10
2023-02-22T00:42:09.621Z,22.20
2023-02-22T00:44:37.490Z,22.60
2023-02-22T00:47:05.436Z,20.90
2023-02-22T00:49:33.319Z,26.80
2023-02-22T00:52:01.906Z,22.40
2023-02-22T00:54:29.771Z,22.80
2023-02-22T00:56:58.363Z,20.90
2023-02-22T00:59:27.473Z,23.40
2023-02-22T01:01:55.255Z,22.40
2023-02-22T01:04:23.280Z,22.50
2023-02-22T01:06:52.071Z,19.00
2023-02-22T01:09:21.712Z,19.40
2023-02-22T01:11:55.499Z,20.10
2023-02-22T01:14:28.159Z,18.40
2023-02-22T01:16:57.246Z,19.10
2023-02-22T01:19:25.634Z,19.10
2023-02-22T01:21:54.766Z,23.30
2023-02-22T01:24:22.588Z,19.50
2023-02-22T01:26:52.605Z,19.50
2023-02-22T01:29:21.351Z,17.40
2023-02-22T01:31:54.951Z,17.20
2023-02-22T01:36:52.162Z,19.90
2023-02-22T01:39:20.130Z,19.40
2023-02-22T01:41:47.988Z,19.70
2023-02-22T01:44:22.802Z,21.70
2023-02-22T01:46:50.684Z,22.30
2023-02-22T01:49:19.530Z,17.00
2023-02-22T01:51:52.688Z,22.70
2023-02-22T01:54:45.728Z,25.80
2023-02-22T01:57:21.366Z,19.90
2023-02-22T01:59:53.942Z,26.20
2023-02-22T02:02:22.532Z,19.70
2023-02-22T02:04:50.445Z,16.80
2023-02-22T02:07:21.572Z,23.90
2023-02-22T02:09:58.318Z,19.30
2023-02-22T02:12:29.280Z,21.40
2023-02-22T02:15:29.069Z,22.40
2023-02-22T02:18:07.423Z,22.90
2023-02-22T02:20:40.467Z,16.70
2023-02-22T02:23:32.491Z,21.10
2023-02-22T02:26:21.844Z,20.00
2023-02-22T02:29:04.633Z,19.00
2023-02-22T02:31:50.640Z,19.40
2023-02-22T02:34:40.334Z,29.00
2023-02-22T02:37:36.066Z,17.90
2023-02-22T02:40:17.888Z,19.10
2023-02-22T02:43:05.285Z,23.60
2023-02-22T02:45:48.392Z,17.70
2023-02-22T02:48:21.506Z,20.10
2023-02-22T02:50:50.587Z,22.80
2023-02-22T02:53:25.459Z,20.10
2023-02-22T02:55:54.103Z,22.60
2023-02-22T02:58:23.776Z,19.70
2023-02-22T03:01:01.542Z,21.20
2023-02-22T03:03:51.829Z,22.20
2023-02-22T03:06:32.659Z,15.60
2023-02-22T03:09:31.019Z,19.20
2023-02-22T03:12:14.051Z,19.60
2023-02-22T03:15:02.963Z,18.40
2023-02-22T03:17:48.274Z,20.10
2023-02-22T03:20:31.687Z,18.30
2023-02-22T03:23:07.473Z,19.30
2023-02-22T03:25:43.456Z,18.20
2023-02-22T03:28:15.262Z,20.40
2023-02-22T03:30:49.237Z,20.60
2023-02-22T03:33:33.721Z,15.80
2023-02-22T03:36:09.598Z,20.90
2023-02-22T03:38:40.364Z,18.80
2023-02-22T03:41:10.817Z,19.00
2023-02-22T03:43:43.125Z,19.80
2023-02-22T03:46:12.917Z,20.80
2023-02-22T03:48:44.270Z,18.30
2023-02-22T03:51:16.776Z,16.90
2023-02-22T03:53:44.962Z,18.80
2023-02-22T03:56:20.583Z,20.90
2023-02-22T03:58:49.918Z,19.30
2023-02-22T04:01:19.968Z,18.20
2023-02-22T04:03:47.835Z,21.00
2023-02-22T04:06:16.170Z,25.00
2023-02-22T04:08:44.340Z,20.60
2023-02-22T04:11:12.518Z,16.70
2023-02-22T04:13:40.378Z,22.00
2023-02-22T04:16:09.062Z,20.00
2023-02-22T04:18:37.183Z,21.20
2023-02-22T04:21:05.618Z,20.80
2023-02-22T04:23:33.483Z,17.30
2023-02-22T04:26:01.452Z,25.80
2023-02-22T04:28:29.211Z,27.90
2023-02-22T04:30:57.463Z,19.10
2023-02-22T04:33:25.492Z,19.40
2023-02-22T04:35:53.252Z,17.50
2023-02-22T04:38:21.399Z,16.50
2023-02-22T04:40:49.260Z,19.10
2023-02-22T04:43:17.011Z,24.40
2023-02-22T04:45:45.708Z,22.70
2023-02-22T04:48:14.187Z,20.60
2023-02-22T04:50:42.365Z,19.50
2023-02-22T04:53:11.151Z,22.20
2023-02-22T04:55:39.223Z,21.40
2023-02-22T04:58:09.510Z,19.70
2023-02-22T05:00:37.424Z,22.60
2023-02-22T05:03:05.425Z,22.60
2023-02-22T05:05:33.305Z,21.00
2023-02-22T05:08:01.217Z,23.40
2023-02-22T05:10:29.682Z,27.40
2023-02-22T05:12:57.465Z,68.10
2023-02-22T05:15:25.714Z,57.10
2023-02-22T05:17:54.132Z,32.30
2023-02-22T05:20:28.797Z,22.60
2023-02-22T05:22:57.936Z,22.20
2023-02-22T05:25:27.873Z,21.20
2023-02-22T05:27:59.276Z,23.60
2023-02-22T05:30:31.401Z,21.40
2023-02-22T05:33:00.159Z,27.50
2023-02-22T05:35:29.346Z,34.60
2023-02-22T05:37:58.656Z,29.30
2023-02-22T05:40:27.743Z,26.00
2023-02-22T05:42:57.182Z,25.20
2023-02-22T05:45:27.439Z,27.40
2023-02-22T05:47:55.743Z,18.90
2023-02-22T05:50:24.843Z,22.40
2023-02-22T05:52:53.519Z,22.50
2023-02-22T05:55:23.734Z,23.90
2023-02-22T05:57:52.626Z,20.80
2023-02-22T06:00:23.937Z,27.60
2023-02-22T06:03:00.037Z,22.40
2023-02-22T06:05:30.124Z,19.20
2023-02-22T06:07:58.634Z,19.50
2023-02-22T06:10:27.515Z,21.50
2023-02-22T06:12:56.714Z,23.90
2023-02-22T06:15:26.981Z,27.60
2023-02-22T06:17:57.909Z,24.90
2023-02-22T06:20:28.186Z,24.30
2023-02-22T06:22:58.649Z,26.70
2023-02-22T06:25:31.319Z,24.30
2023-02-22T06:28:00.510Z,21.00
2023-02-22T06:30:29.666Z,26.00
2023-02-22T06:32:57.758Z,27.50
2023-02-22T06:35:26.608Z,26.20
2023-02-22T06:37:54.477Z,24.80
2023-02-22T06:40:22.358Z,29.00
2023-02-22T06:42:50.547Z,22.80
2023-02-22T06:45:18.696Z,27.70
2023-02-22T06:47:47.472Z,23.90
2023-02-22T06:50:30.131Z,23.30
2023-02-22T06:52:59.333Z,21.60
2023-02-22T06:55:32.518Z,23.90
2023-02-22T06:58:02.160Z,24.40
2023-02-22T07:00:32.342Z,20.30
2023-02-22T07:03:01.074Z,23.40
2023-02-22T07:05:29.312Z,27.30
2023-02-22T07:08:04.538Z,26.00
2023-02-22T07:10:34.542Z,24.60
2023-02-22T07:13:03.678Z,22.70
2023-02-22T07:15:33.067Z,25.90
2023-02-22T07:18:01.932Z,24.70
2023-02-22T07:20:32.186Z,26.80
2023-02-22T07:23:01.460Z,22.40
2023-02-22T07:25:29.342Z,21.80
2023-02-22T07:27:57.764Z,20.40
2023-02-22T07:30:31.749Z,20.70
2023-02-22T07:33:06.042Z,21.80
2023-02-22T07:35:49.392Z,19.60
2023-02-22T07:38:19.505Z,20.40
2023-02-22T07:40:47.390Z,23.30
2023-02-22T07:43:16.985Z,18.00
2023-02-22T07:45:46.512Z,19.80
2023-02-22T07:48:17.572Z,23.80
2023-02-22T07:50:46.241Z,19.00
2023-02-22T07:53:18.140Z,19.70
2023-02-22T07:55:46.537Z,17.90
2023-02-22T07:58:16.145Z,23.60
2023-02-22T08:00:44.675Z,21.60
2023-02-22T08:03:13.759Z,16.50
2023-02-22T08:05:45.813Z,18.10
2023-02-22T08:08:19.732Z,20.80
2023-02-22T08:10:50.272Z,16.40
2023-02-22T08:13:19.347Z,23.20
2023-02-22T08:15:50.147Z,20.70
2023-02-22T08:18:20.487Z,23.10
2023-02-22T08:20:50.555Z,22.70
2023-02-22T08:23:20.326Z,18.80
2023-02-22T08:25:48.779Z,24.30
2023-02-22T08:28:20.025Z,26.40
2023-02-22T08:30:47.971Z,26.60
2023-02-22T08:33:19.694Z,30.40
2023-02-22T08:35:52.173Z,31.90
2023-02-22T08:38:27.922Z,23.50
2023-02-22T08:40:56.663Z,29.50
2023-02-22T08:43:24.846Z,28.40
2023-02-22T08:45:54.446Z,25.60
2023-02-22T08:48:24.268Z,35.40
2023-02-22T08:50:52.151Z,23.50
2023-02-22T08:53:20.080Z,26.50
2023-02-22T08:55:47.944Z,101.40
2023-02-22T08:58:15.916Z,37.90
2023-02-22T09:00:45.119Z,24.90
2023-02-22T09:03:15.390Z,37.40
2023-02-22T09:05:44.695Z,33.80
2023-02-22T09:08:13.439Z,30.00
2023-02-22T09:10:41.623Z,26.70
2023-02-22T09:13:09.564Z,21.30
2023-02-22T09:15:39.723Z,25.20
2023-02-22T09:18:09.937Z,21.00
2023-02-22T09:20:38.295Z,61.20
2023-02-22T09:23:07.184Z,104.10
2023-02-22T09:25:35.894Z,43.80
2023-02-22T09:28:04.462Z,41.10
2023-02-22T09:30:35.424Z,32.20
2023-02-22T09:33:05.817Z,34.10
2023-02-22T09:35:36.538Z,25.70
2023-02-22T09:38:08.769Z,35.70
2023-02-22T09:40:45.062Z,29.70
2023-02-22T09:43:25.141Z,33.40
2023-02-22T09:46:19.527Z,50.10
2023-02-22T09:49:00.510Z,32.80
2023-02-22T09:51:58.957Z,26.90
2023-02-22T09:54:35.691Z,25.40
2023-02-22T09:57:16.348Z,21.00
2023-02-22T09:59:54.091Z,21.90
2023-02-22T10:02:32.441Z,27.20
2023-02-22T10:05:21.149Z,28.80
2023-02-22T10:07:58.444Z,21.20
2023-02-22T10:10:33.688Z,18.60
2023-02-22T10:13:24.512Z,37.20
2023-02-22T10:15:58.516Z,34.40
2023-02-22T10:18:51.570Z,29.60
2023-02-22T10:21:57.731Z,24.00
2023-02-22T10:24:47.768Z,25.60
2023-02-22T10:27:29.334Z,23.30
2023-02-22T10:30:24.575Z,26.10
2023-02-22T10:33:01.427Z,21.60
2023-02-22T10:35:38.685Z,25.40
2023-02-22T10:38:20.836Z,24.90
2023-02-22T10:41:24.102Z,24.60
2023-02-22T10:43:51.969Z,23.00
2023-02-22T10:46:22.867Z,23.20
2023-02-22T10:48:54.680Z,21.50
2023-02-22T10:51:22.800Z,19.40
2023-02-22T10:53:59.541Z,19.30
2023-02-22T10:56:28.685Z,22.90
2023-02-22T10:59:00.611Z,20.90
2023-02-22T11:01:31.426Z,21.50
2023-02-22T11:04:04.746Z,25.30
2023-02-22T11:06:34.938Z,18.90
2023-02-22T11:09:13.301Z,23.30
2023-02-22T11:11:44.139Z,22.70
2023-02-22T11:14:24.531Z,25.40
2023-02-22T11:16:58.564Z,18.60
2023-02-22T11:19:32.923Z,23.30
2023-02-22T11:22:19.185Z,23.70
2023-02-22T11:24:58.281Z,23.10
2023-02-22T11:27:54.263Z,21.20
2023-02-22T11:30:29.330Z,22.50
2023-02-22T11:33:12.682Z,24.10
2023-02-22T11:35:52.839Z,31.00
2023-02-22T11:38:32.779Z,44.80
2023-02-22T11:41:15.288Z,29.10
2023-02-22T11:43:48.747Z,24.90
2023-02-22T11:46:31.755Z,21.40
2023-02-22T11:49:05.311Z,20.00
2023-02-22T11:51:47.441Z,19.30
2023-02-22T11:54:25.497Z,77.70
2023-02-22T11:57:16.769Z,58.00
2023-02-22T12:00:06.769Z,42.30
2023-02-22T12:03:03.397Z,34.60
2023-02-22T12:05:42.740Z,20.30
2023-02-22T12:08:33.460Z,31.30
2023-02-22T12:11:20.550Z,17.90
2023-02-22T12:14:05.730Z,22.90
2023-02-22T12:17:07.484Z,28.30
2023-02-22T12:20:01.765Z,31.60
2023-02-22T12:22:34.707Z,23.10
2023-02-22T12:25:10.124Z,23.10
2023-02-22T12:27:53.147Z,20.10
2023-02-22T12:30:32.920Z,22.80
2023-02-22T12:33:06.428Z,18.70
2023-02-22T12:35:39.315Z,16.80
2023-02-22T12:38:23.617Z,15.00
2023-02-22T12:41:04.132Z,11.40
2023-02-22T12:43:39.134Z,13.10
2023-02-22T12:46:11.929Z,15.20
2023-02-22T12:48:54.842Z,15.50
2023-02-22T12:51:32.344Z,20.50
2023-02-22T12:54:21.991Z,14.00
2023-02-22T12:56:55.865Z,23.90
2023-02-22T12:59:39.011Z,19.90
2023-02-22T13:02:21.602Z,19.80
2023-02-22T13:04:50.407Z,28.60
2023-02-22T13:07:33.314Z,23.40
2023-02-22T13:10:32.411Z,20.50
2023-02-22T13:13:04.988Z,24.00
2023-02-22T13:15:51.940Z,21.20
2023-02-22T13:18:47.874Z,26.90
2023-02-22T13:21:20.964Z,23.00
2023-02-22T13:24:12.783Z,20.30
2023-02-22T13:26:51.505Z,24.40
2023-02-22T13:29:28.765Z,29.60
2023-02-22T13:32:25.778Z,22.10
2023-02-22T13:35:06.430Z,29.50
2023-02-22T13:38:14.890Z,24.10
2023-02-22T13:40:55.329Z,20.80
2023-02-22T13:43:41.534Z,17.40
2023-02-22T13:46:47.957Z,25.90
2023-02-22T13:49:19.822Z,25.30
2023-02-22T13:51:59.112Z,25.20
2023-02-22T13:54:30.042Z,48.20
2023-02-22T13:56:58.402Z,25.50
2023-02-22T13:59:39.564Z,26.80
2023-02-22T14:02:35.832Z,21.10
2023-02-22T14:05:45.268Z,45.20
2023-02-22T14:08:18.912Z,112.60
2023-02-22T14:13:23.128Z,43.60
2023-02-22T14:16:00.417Z,53.00
2023-02-22T14:18:41.974Z,36.50
2023-02-22T14:21:13.563Z,39.00
2023-02-22T14:23:51.310Z,35.90
2023-02-22T14:26:37.789Z,32.70
2023-02-22T14:29:05.577Z,35.20
2023-02-22T14:31:55.452Z,25.80
2023-02-22T14:34:43.186Z,31.60
2023-02-22T14:37:17.555Z,29.50
2023-02-22T14:39:51.240Z,27.90
2023-02-22T14:42:38.410Z,32.90
2023-02-22T14:45:09.674Z,27.10
2023-02-22T14:48:04.167Z,30.10
2023-02-22T14:50:41.269Z,27.90
2023-02-22T14:53:41.595Z,21.90
2023-02-22T14:56:18.333Z,25.30
2023-02-22T14:59:11.501Z,36.80
2023-02-22T15:01:58.407Z,35.10
2023-02-22T15:04:33.913Z,28.60
2023-02-22T15:07:27.907Z,23.90
2023-02-22T15:10:39.116Z,20.60
2023-02-22T15:13:16.398Z,24.80
2023-02-22T15:15:49.295Z,23.40
2023-02-22T15:18:18.596Z,20.70
2023-02-22T15:20:49.526Z,27.00
2023-02-22T15:23:18.156Z,23.40
2023-02-22T15:25:50.182Z,26.60
2023-02-22T15:28:19.040Z,36.10
2023-02-22T15:30:48.160Z,32.90
2023-02-22T15:33:24.796Z,42.10
2023-02-22T15:35:57.213Z,43.80
2023-02-22T15:38:31.536Z,48.90
2023-02-22T15:41:05.617Z,46.50
2023-02-22T15:46:03.446Z,51.60
2023-02-22T15:48:33.333Z,55.80
2023-02-22T15:51:10.639Z,108.10
2023-02-22T15:53:42.177Z,112.70
2023-02-22T15:56:40.446Z,77.80
2023-02-22T15:59:20.872Z,83.50
2023-02-22T16:01:54.365Z,67.40
2023-02-22T16:04:25.572Z,65.30
2023-02-22T16:07:17.148Z,71.30
